createdAt,value
2022-09-28T00:00:29.165Z,93884.95
2022-09-28T00:01:29.188Z,93885.19
2022-09-28T00:02:29.256Z,93879.72
2022-09-28T00:03:29.148Z,93878.88
2022-09-28T00:04:29.118Z,93875.38
2022-09-28T00:05:29.110Z,93871.08
2022-09-28T00:06:29.157Z,93864.09
2022-09-28T00:07:29.084Z,93856.73
2022-09-28T00:08:29.081Z,93858.36
2022-09-28T00:09:29.079Z,93861.17
2022-09-28T00:10:29.078Z,93852.86
2022-09-28T00:11:29.051Z,93853.14
2022-09-28T00:12:29.063Z,93853.95
2022-09-28T00:13:29.046Z,93854.56
2022-09-28T00:14:29.031Z,93853.27
2022-09-28T00:15:29.027Z,93850.69
2022-09-28T00:16:29.059Z,93846.48
2022-09-28T00:17:28.994Z,93845.50
2022-09-28T00:18:29.027Z,93841.70
2022-09-28T00:19:28.984Z,93839.02
2022-09-28T00:20:28.975Z,93839.36
2022-09-28T00:21:28.965Z,93841.91
2022-09-28T00:22:28.966Z,93834.61
2022-09-28T00:23:28.947Z,93828.17
2022-09-28T00:24:28.970Z,93826.64
2022-09-28T00:25:28.950Z,93825.80
2022-09-28T00:26:28.946Z,93822.98
2022-09-28T00:27:28.917Z,93823.42
2022-09-28T00:28:28.916Z,93823.05
2022-09-28T00:29:28.915Z,93817.55
2022-09-28T00:30:28.921Z,93816.95
2022-09-28T00:31:28.923Z,93812.06
2022-09-28T00:32:28.878Z,93815.35
2022-09-28T00:33:28.867Z,93810.70
2022-09-28T00:34:28.873Z,93812.12
2022-09-28T00:35:28.863Z,93811.00
2022-09-28T00:36:28.873Z,93810.47
2022-09-28T00:37:28.843Z,93809.58
2022-09-28T00:38:28.834Z,93802.94
2022-09-28T00:39:28.825Z,93801.92
2022-09-28T00:40:28.895Z,93803.14
2022-09-28T00:41:28.815Z,93797.84
2022-09-28T00:42:28.819Z,93800.05
2022-09-28T00:43:28.797Z,93806.59
2022-09-28T00:44:28.781Z,93802.59
2022-09-28T00:45:28.823Z,93796.55
2022-09-28T00:46:28.763Z,93796.59
2022-09-28T00:47:28.752Z,93797.23
2022-09-28T00:48:28.768Z,93795.30
2022-09-28T00:49:28.735Z,93791.40
2022-09-28T00:50:28.744Z,93793.27
2022-09-28T00:51:28.730Z,93780.27
2022-09-28T00:52:28.728Z,93785.70
2022-09-28T00:53:28.708Z,93787.06
2022-09-28T00:54:28.730Z,93781.30
2022-09-28T00:55:28.697Z,93775.08
2022-09-28T00:56:28.676Z,93772.95
2022-09-28T00:57:28.666Z,93769.66
2022-09-28T00:58:28.666Z,93770.41
2022-09-28T00:59:28.660Z,93768.61
2022-09-28T01:00:28.708Z,93765.48
2022-09-28T01:01:28.648Z,93761.21
2022-09-28T01:02:28.682Z,93754.59
2022-09-28T01:03:28.633Z,93757.98
2022-09-28T01:04:30.034Z,93752.91
2022-09-28T01:05:28.612Z,93758.36
2022-09-28T01:06:28.619Z,93754.97
2022-09-28T01:07:28.580Z,93748.36
2022-09-28T01:08:28.581Z,93755.00
2022-09-28T01:09:28.569Z,93747.11
2022-09-28T01:10:28.573Z,93751.78
2022-09-28T01:11:28.564Z,93743.61
2022-09-28T01:12:28.565Z,93745.81
2022-09-28T01:13:28.530Z,93745.17
2022-09-28T01:14:28.531Z,93743.81
2022-09-28T01:15:28.512Z,93743.48
2022-09-28T01:16:28.575Z,93747.89
2022-09-28T01:17:28.503Z,93741.44
2022-09-28T01:18:28.503Z,93742.56
2022-09-28T01:19:28.498Z,93750.20
2022-09-28T01:20:28.482Z,93751.59
2022-09-28T01:21:28.464Z,93748.94
2022-09-28T01:22:28.464Z,93746.06
2022-09-28T01:23:28.453Z,93747.95
2022-09-28T01:24:28.488Z,93738.30
2022-09-28T01:25:28.436Z,93738.63
2022-09-28T01:26:28.439Z,93737.04
2022-09-28T01:27:28.415Z,93730.42
2022-09-28T01:28:28.429Z,93729.03
2022-09-28T01:29:28.410Z,93726.09
2022-09-28T01:30:28.430Z,93726.59
2022-09-28T01:31:28.449Z,93723.38
2022-09-28T01:32:28.390Z,93724.42
2022-09-28T01:33:28.381Z,93717.44
2022-09-28T01:34:28.368Z,93717.47
2022-09-28T01:35:28.362Z,93715.27
2022-09-28T01:36:28.372Z,93717.00
2022-09-28T01:37:28.342Z,93714.80
2022-09-28T01:38:28.344Z,93707.64
2022-09-28T01:39:28.332Z,93705.57
2022-09-28T01:40:28.364Z,93707.30
2022-09-28T01:41:28.299Z,93702.38
2022-09-28T01:42:28.310Z,93692.98
2022-09-28T01:43:28.294Z,93694.24
2022-09-28T01:44:28.294Z,93694.17
2022-09-28T01:45:28.334Z,93683.80
2022-09-28T01:46:28.262Z,93680.00
2022-09-28T01:47:28.265Z,93680.91
2022-09-28T01:48:28.262Z,93677.89
2022-09-28T01:49:28.246Z,93677.45
2022-09-28T01:50:28.244Z,93676.16
2022-09-28T01:51:28.227Z,93677.39
2022-09-28T01:52:28.226Z,93672.97
2022-09-28T01:53:28.193Z,93679.92
2022-09-28T01:54:28.203Z,93677.72
2022-09-28T01:55:28.202Z,93680.81
2022-09-28T01:56:28.175Z,93681.15
2022-09-28T01:57:28.165Z,93675.52
2022-09-28T01:58:28.176Z,93676.53
2022-09-28T01:59:28.158Z,93674.16
2022-09-28T02:00:28.189Z,93666.12
2022-09-28T02:01:28.135Z,93669.34
2022-09-28T02:02:28.196Z,93667.38
2022-09-28T02:03:28.129Z,93661.75
2022-09-28T02:04:28.118Z,93654.19
2022-09-28T02:05:28.097Z,93663.38
2022-09-28T02:06:28.130Z,93659.38
2022-09-28T02:07:28.079Z,93653.44
2022-09-28T02:08:28.092Z,93664.19
2022-09-28T02:09:31.775Z,93664.25
2022-09-28T02:10:28.058Z,93659.17
2022-09-28T02:11:28.048Z,93661.06
2022-09-28T02:12:28.050Z,93662.48
2022-09-28T02:13:28.043Z,93657.73
2022-09-28T02:14:28.029Z,93658.05
2022-09-28T02:15:28.010Z,93661.03
2022-09-28T02:16:28.047Z,93658.05
2022-09-28T02:17:28.007Z,93657.44
2022-09-28T02:18:28.024Z,93650.52
2022-09-28T02:19:27.984Z,93651.16
2022-09-28T02:20:27.972Z,93649.77
2022-09-28T02:21:27.977Z,93653.53
2022-09-28T02:22:27.965Z,93650.75
2022-09-28T02:23:27.956Z,93651.16
2022-09-28T02:24:27.975Z,93649.09
2022-09-28T02:25:27.923Z,93643.05
2022-09-28T02:26:27.923Z,93641.53
2022-09-28T02:27:27.925Z,93636.38
2022-09-28T02:28:27.917Z,93633.33
2022-09-28T02:29:27.894Z,93632.08
2022-09-28T02:30:27.904Z,93628.34
2022-09-28T02:31:27.995Z,93625.16
2022-09-28T02:32:27.886Z,93626.07
2022-09-28T02:33:27.855Z,93616.91
2022-09-28T02:34:27.855Z,93619.83
2022-09-28T02:35:27.844Z,93613.89
2022-09-28T02:36:27.857Z,93610.00
2022-09-28T02:37:27.829Z,93612.34
2022-09-28T02:38:27.909Z,93609.96
2022-09-28T02:39:27.807Z,93614.00
2022-09-28T02:40:27.917Z,93609.86
2022-09-28T02:41:27.803Z,93604.64
2022-09-28T02:42:27.811Z,93612.67
2022-09-28T02:43:27.782Z,93606.64
2022-09-28T02:44:27.781Z,93610.00
2022-09-28T02:45:27.784Z,93608.34
2022-09-28T02:46:27.750Z,93606.12
2022-09-28T02:47:27.740Z,93613.32
2022-09-28T02:48:43.151Z,93609.86
2022-09-28T02:49:27.734Z,93607.28
2022-09-28T02:50:27.711Z,93608.50
2022-09-28T02:51:27.701Z,93602.16
2022-09-28T02:52:27.691Z,93600.12
2022-09-28T02:53:27.695Z,93599.45
2022-09-28T02:54:27.692Z,93598.19
2022-09-28T02:55:27.676Z,93594.33
2022-09-28T02:56:27.677Z,93594.27
2022-09-28T02:57:27.652Z,93588.47
2022-09-28T02:58:27.657Z,93587.92
2022-09-28T02:59:27.644Z,93583.72
2022-09-28T03:00:27.641Z,93585.27
2022-09-28T03:01:27.649Z,93585.41
2022-09-28T03:02:27.666Z,93584.05
2022-09-28T03:03:27.594Z,93581.85
2022-09-28T03:04:27.594Z,93583.91
2022-09-28T03:05:27.575Z,93582.39
2022-09-28T03:06:27.594Z,93577.78
2022-09-28T03:07:27.555Z,93581.14
2022-09-28T03:08:27.575Z,93580.33
2022-09-28T03:09:27.559Z,93578.45
2022-09-28T03:10:27.549Z,93578.86
2022-09-28T03:11:27.540Z,93576.80
2022-09-28T03:12:27.550Z,93571.38
2022-09-28T03:13:27.520Z,93570.05
2022-09-28T03:14:27.520Z,93574.22
2022-09-28T03:15:27.488Z,93576.62
2022-09-28T03:16:27.626Z,93575.30
2022-09-28T03:17:27.475Z,93572.86
2022-09-28T03:18:27.514Z,93569.51
2022-09-28T03:19:27.464Z,93571.88
2022-09-28T03:20:27.463Z,93564.86
2022-09-28T03:21:27.453Z,93562.42
2022-09-28T03:22:27.441Z,93561.13
2022-09-28T03:23:27.433Z,93558.83
2022-09-28T03:24:27.444Z,93562.97
2022-09-28T03:25:27.409Z,93561.34
2022-09-28T03:26:27.401Z,93560.25
2022-09-28T03:27:27.392Z,93560.66
2022-09-28T03:28:27.391Z,93563.38
2022-09-28T03:29:27.372Z,93567.03
2022-09-28T03:30:27.382Z,93565.84
2022-09-28T03:31:27.424Z,93568.45
2022-09-28T03:32:27.366Z,93568.28
2022-09-28T03:33:27.341Z,93566.15
2022-09-28T03:34:27.333Z,93566.80
2022-09-28T03:35:27.324Z,93569.34
2022-09-28T03:36:27.324Z,93573.98
2022-09-28T03:37:27.304Z,93571.75
2022-09-28T03:38:27.308Z,93574.02
2022-09-28T03:39:27.285Z,93563.34
2022-09-28T03:40:27.344Z,93564.19
2022-09-28T03:41:27.279Z,93568.05
2022-09-28T03:42:27.290Z,93565.91
2022-09-28T03:43:27.259Z,93559.10
2022-09-28T03:44:27.247Z,93554.42
2022-09-28T03:45:27.318Z,93555.20
2022-09-28T03:46:27.228Z,93558.56
2022-09-28T03:47:27.218Z,93551.61
2022-09-28T03:48:31.886Z,93551.67
2022-09-28T03:49:27.206Z,93556.52
2022-09-28T03:50:27.199Z,93556.02
2022-09-28T03:51:27.192Z,93554.42
2022-09-28T03:52:27.192Z,93542.95
2022-09-28T03:53:27.170Z,93544.89
2022-09-28T03:54:27.183Z,93543.38
2022-09-28T03:55:27.163Z,93542.22
2022-09-28T03:56:27.155Z,93541.47
2022-09-28T03:57:27.131Z,93532.96
2022-09-28T03:58:27.121Z,93531.00
2022-09-28T03:59:27.135Z,93535.37
2022-09-28T04:00:27.114Z,93529.44
2022-09-28T04:01:27.160Z,93535.91
2022-09-28T04:02:27.154Z,93537.64
2022-09-28T04:03:27.082Z,93539.78
2022-09-28T04:04:27.087Z,93530.35
2022-09-28T04:05:27.063Z,93532.89
2022-09-28T04:06:27.072Z,93533.58
2022-09-28T04:07:30.886Z,93533.61
2022-09-28T04:08:27.036Z,93528.48
2022-09-28T04:09:27.034Z,93520.18
2022-09-28T04:10:27.022Z,93525.03
2022-09-28T04:11:27.068Z,93516.21
2022-09-28T04:12:27.026Z,93519.20
2022-09-28T04:13:26.997Z,93520.28
2022-09-28T04:14:26.999Z,93510.89
2022-09-28T04:15:26.997Z,93516.14
2022-09-28T04:16:27.000Z,93521.73
2022-09-28T04:17:26.973Z,93528.52
2022-09-28T04:18:26.970Z,93527.60
2022-09-28T04:19:26.946Z,93530.59
2022-09-28T04:20:26.949Z,93523.12
2022-09-28T04:21:26.928Z,93532.31
2022-09-28T04:22:26.931Z,93527.60
2022-09-28T04:23:26.932Z,93529.20
2022-09-28T04:24:26.942Z,93528.62
2022-09-28T04:25:26.898Z,93543.64
2022-09-28T04:26:26.892Z,93534.92
2022-09-28T04:27:26.893Z,93532.38
2022-09-28T04:28:26.869Z,93522.55
2022-09-28T04:29:26.874Z,93520.48
2022-09-28T04:30:26.860Z,93518.28
2022-09-28T04:31:26.928Z,93517.94
2022-09-28T04:32:26.844Z,93518.45
2022-09-28T04:33:26.831Z,93515.80
2022-09-28T04:34:26.812Z,93515.09
2022-09-28T04:35:26.825Z,93514.52
2022-09-28T04:36:26.835Z,93521.12
2022-09-28T04:37:26.793Z,93532.99
2022-09-28T04:38:41.837Z,93528.14
2022-09-28T04:39:26.787Z,93517.56
2022-09-28T04:40:26.829Z,93517.02
2022-09-28T04:41:26.770Z,93515.19
2022-09-28T04:42:26.777Z,93508.86
2022-09-28T04:43:26.744Z,93507.84
2022-09-28T04:44:26.739Z,93509.30
2022-09-28T04:45:26.759Z,93509.50
2022-09-28T04:46:26.716Z,93509.53
2022-09-28T04:47:26.705Z,93513.16
2022-09-28T04:48:26.720Z,93514.58
2022-09-28T04:49:26.686Z,93509.98
2022-09-28T04:50:26.689Z,93505.91
2022-09-28T04:51:26.690Z,93503.60
2022-09-28T04:52:26.671Z,93500.98
2022-09-28T04:53:26.657Z,93505.23
2022-09-28T04:54:26.662Z,93503.70
2022-09-28T04:55:26.638Z,93503.36
2022-09-28T04:56:26.635Z,93505.44
2022-09-28T04:57:26.631Z,93504.72
2022-09-28T04:58:26.608Z,93509.47
2022-09-28T04:59:26.614Z,93509.67
2022-09-28T05:00:26.620Z,93507.53
2022-09-28T05:01:26.678Z,93505.57
2022-09-28T05:02:26.650Z,93503.06
2022-09-28T05:03:26.575Z,93504.08
2022-09-28T05:04:26.550Z,93501.73
2022-09-28T05:05:26.561Z,93506.45
2022-09-28T05:06:26.551Z,93505.97
2022-09-28T05:07:26.531Z,93501.50
2022-09-28T05:08:26.528Z,93505.26
2022-09-28T05:09:26.511Z,93511.94
2022-09-28T05:10:26.501Z,93509.30
2022-09-28T05:11:26.492Z,93508.78
2022-09-28T05:12:26.493Z,93510.05
2022-09-28T05:13:26.487Z,93516.75
2022-09-28T05:14:26.465Z,93514.28
2022-09-28T05:15:26.474Z,93515.88
2022-09-28T05:16:26.489Z,93517.41
2022-09-28T05:17:26.444Z,93508.75
2022-09-28T05:18:26.448Z,93502.99
2022-09-28T05:19:26.438Z,93500.79
2022-09-28T05:20:26.414Z,93512.55
2022-09-28T05:21:26.418Z,93509.40
2022-09-28T05:22:26.409Z,93512.79
2022-09-28T05:23:26.386Z,93521.58
2022-09-28T05:24:26.396Z,93525.61
2022-09-28T05:25:26.387Z,93519.47
2022-09-28T05:26:26.382Z,93518.69
2022-09-28T05:27:26.358Z,93521.30
2022-09-28T05:28:26.340Z,93523.13
2022-09-28T05:29:30.089Z,93526.59
2022-09-28T05:30:26.363Z,93528.25
2022-09-28T05:31:26.364Z,93525.61
2022-09-28T05:32:26.322Z,93510.66
2022-09-28T05:33:26.321Z,93510.08
2022-09-28T05:34:26.289Z,93518.35
2022-09-28T05:35:26.291Z,93493.41
2022-09-28T05:36:26.289Z,93495.78
2022-09-28T05:37:26.284Z,93501.20
2022-09-28T05:38:26.275Z,93500.86
2022-09-28T05:39:26.264Z,93501.98
2022-09-28T05:40:26.354Z,93500.48
2022-09-28T05:41:26.254Z,93502.89
2022-09-28T05:42:26.232Z,93507.84
2022-09-28T05:43:26.235Z,93505.06
2022-09-28T05:44:26.210Z,93504.48
2022-09-28T05:45:26.270Z,93499.37
2022-09-28T05:46:26.220Z,93502.86
2022-09-28T05:47:26.185Z,93500.89
2022-09-28T05:48:26.202Z,93506.01
2022-09-28T05:49:26.187Z,93496.66
2022-09-28T05:50:26.162Z,93497.36
2022-09-28T05:51:26.169Z,93498.80
2022-09-28T05:52:26.146Z,93493.60
2022-09-28T05:53:26.135Z,93497.53
2022-09-28T05:54:26.149Z,93492.79
2022-09-28T05:55:26.246Z,93494.55
2022-09-28T05:56:26.120Z,93498.41
2022-09-28T05:57:26.119Z,93494.58
2022-09-28T05:58:26.100Z,93496.05
2022-09-28T05:59:26.086Z,93498.75
2022-09-28T06:00:26.097Z,93494.99
2022-09-28T06:01:26.128Z,93491.64
2022-09-28T06:02:26.121Z,93488.25
2022-09-28T06:03:26.062Z,93492.17
2022-09-28T06:04:26.052Z,93486.92
2022-09-28T06:05:26.040Z,93485.56
2022-09-28T06:06:26.037Z,93484.55
2022-09-28T06:07:26.034Z,93488.62
2022-09-28T06:08:26.022Z,93485.73
2022-09-28T06:09:26.206Z,93482.61
2022-09-28T06:10:25.990Z,93487.94
2022-09-28T06:11:26.004Z,93482.52
2022-09-28T06:12:26.005Z,93487.47
2022-09-28T06:13:25.984Z,93487.70
2022-09-28T06:14:25.972Z,93488.48
2022-09-28T06:15:25.965Z,93478.95
2022-09-28T06:16:26.008Z,93484.89
2022-09-28T06:17:25.964Z,93482.34
2022-09-28T06:18:25.934Z,93480.58
2022-09-28T06:19:25.923Z,93478.81
2022-09-28T06:20:25.903Z,93480.75
2022-09-28T06:21:25.926Z,93481.53
2022-09-28T06:22:25.888Z,93477.49
2022-09-28T06:23:25.907Z,93483.45
2022-09-28T06:24:25.906Z,93486.48
2022-09-28T06:25:25.887Z,93489.45
2022-09-28T06:26:25.870Z,93490.78
2022-09-28T06:27:25.868Z,93492.03
2022-09-28T06:28:25.836Z,93501.29
2022-09-28T06:29:25.838Z,93511.87
2022-09-28T06:30:25.868Z,93510.34
2022-09-28T06:31:25.816Z,93510.88
2022-09-28T06:32:25.811Z,93511.66
2022-09-28T06:33:25.810Z,93511.52
2022-09-28T06:34:25.787Z,93510.91
2022-09-28T06:35:25.800Z,93505.76
2022-09-28T06:36:25.798Z,93509.11
2022-09-28T06:37:25.788Z,93507.25
2022-09-28T06:38:25.762Z,93506.77
2022-09-28T06:39:25.762Z,93508.30
2022-09-28T06:40:25.756Z,93503.82
2022-09-28T06:41:25.729Z,93505.98
2022-09-28T06:42:25.728Z,93512.09
2022-09-28T06:43:25.712Z,93513.98
2022-09-28T06:44:25.701Z,93512.83
2022-09-28T06:45:25.717Z,93510.05
2022-09-28T06:46:25.770Z,93512.12
2022-09-28T06:47:25.695Z,93506.42
2022-09-28T06:48:25.671Z,93510.42
2022-09-28T06:49:25.662Z,93506.62
2022-09-28T06:50:25.644Z,93512.86
2022-09-28T06:51:25.656Z,93512.79
2022-09-28T06:52:25.647Z,93520.92
2022-09-28T06:53:25.624Z,93522.28
2022-09-28T06:54:25.764Z,93515.42
2022-09-28T06:55:25.619Z,93519.19
2022-09-28T06:56:29.392Z,93519.19
2022-09-28T06:57:25.594Z,93524.48
2022-09-28T06:58:25.574Z,93513.02
2022-09-28T06:59:25.575Z,93510.91
2022-09-28T07:00:25.574Z,93520.78
2022-09-28T07:01:25.605Z,93511.31
2022-09-28T07:02:25.603Z,93513.38
2022-09-28T07:03:25.549Z,93512.70
2022-09-28T07:04:25.527Z,93516.46
2022-09-28T07:05:25.517Z,93515.20
2022-09-28T07:06:25.531Z,93519.34
2022-09-28T07:07:25.508Z,93515.48
2022-09-28T07:08:25.487Z,93518.77
2022-09-28T07:09:33.002Z,93517.58
2022-09-28T07:10:25.489Z,93526.53
2022-09-28T07:11:25.482Z,93523.88
2022-09-28T07:12:25.498Z,93529.17
2022-09-28T07:13:47.471Z,93534.97
2022-09-28T07:14:44.497Z,93536.26
2022-09-28T07:15:25.439Z,93542.73
2022-09-28T07:16:29.220Z,93536.49
2022-09-28T07:17:25.468Z,93541.98
2022-09-28T07:18:25.468Z,93542.90
2022-09-28T07:19:25.401Z,93548.84
2022-09-28T07:20:25.405Z,93551.17
2022-09-28T07:21:30.120Z,93546.94
2022-09-28T07:22:37.933Z,93546.28
2022-09-28T07:23:25.372Z,93550.97
2022-09-28T07:24:25.386Z,93552.16
2022-09-28T07:25:25.367Z,93555.84
2022-09-28T07:26:25.356Z,93557.14
2022-09-28T07:27:28.849Z,93560.93
2022-09-28T07:28:25.324Z,93560.33
2022-09-28T07:29:25.321Z,93562.97
2022-09-28T07:30:25.375Z,93562.12
2022-09-28T07:31:25.320Z,93564.52
2022-09-28T07:32:25.309Z,93560.11
2022-09-28T07:33:25.285Z,93560.66
2022-09-28T07:34:25.278Z,93565.06
2022-09-28T07:35:25.279Z,93564.83
2022-09-28T07:36:25.266Z,93567.41
2022-09-28T07:37:25.267Z,93562.99
2022-09-28T07:38:25.236Z,93563.06
2022-09-28T07:39:25.237Z,93565.40
2022-09-28T07:40:25.370Z,93565.06
2022-09-28T07:41:25.233Z,93567.73
2022-09-28T07:42:25.234Z,93573.58
2022-09-28T07:43:25.214Z,93574.99
2022-09-28T07:44:25.195Z,93577.44
2022-09-28T07:45:25.199Z,93575.57
2022-09-28T07:46:25.212Z,93580.80
2022-09-28T07:47:25.169Z,93579.47
2022-09-28T07:48:25.260Z,93582.59
2022-09-28T07:49:25.151Z,93585.03
2022-09-28T07:50:25.154Z,93585.30
2022-09-28T07:51:25.132Z,93592.02
2022-09-28T07:52:25.121Z,93587.98
2022-09-28T07:53:25.119Z,93587.37
2022-09-28T07:54:25.125Z,93589.91
2022-09-28T07:55:25.102Z,93585.63
2022-09-28T07:56:25.096Z,93589.66
2022-09-28T07:57:25.084Z,93584.91
2022-09-28T07:58:25.076Z,93592.66
2022-09-28T07:59:25.063Z,93594.14
2022-09-28T08:00:25.063Z,93590.14
2022-09-28T08:01:25.058Z,93586.47
2022-09-28T08:02:25.090Z,93585.01
2022-09-28T08:03:25.036Z,93598.20
2022-09-28T08:04:25.038Z,93590.73
2022-09-28T08:05:25.015Z,93591.21
2022-09-28T08:06:25.035Z,93592.06
2022-09-28T08:07:25.008Z,93595.28
2022-09-28T08:08:25.000Z,93595.14
2022-09-28T08:09:24.991Z,93593.84
2022-09-28T08:10:24.990Z,93594.19
2022-09-28T08:11:24.970Z,93590.24
2022-09-28T08:12:24.981Z,93591.19
2022-09-28T08:13:27.107Z,93592.20
2022-09-28T08:14:24.951Z,93592.03
2022-09-28T08:15:24.939Z,93592.94
2022-09-28T08:16:25.035Z,93587.34
2022-09-28T08:17:24.922Z,93591.78
2022-09-28T08:18:24.918Z,93589.44
2022-09-28T08:19:24.902Z,93588.31
2022-09-28T08:20:24.903Z,93588.21
2022-09-28T08:21:24.879Z,93589.12
2022-09-28T08:22:24.914Z,93583.55
2022-09-28T08:23:24.861Z,93587.76
2022-09-28T08:24:24.860Z,93587.86
2022-09-28T08:25:24.842Z,93592.95
2022-09-28T08:26:24.868Z,93592.13
2022-09-28T08:27:24.835Z,93590.36
2022-09-28T08:28:24.822Z,93594.78
2022-09-28T08:29:24.826Z,93590.42
2022-09-28T08:30:24.887Z,93599.08
2022-09-28T08:31:24.793Z,93600.88
2022-09-28T08:32:24.805Z,93601.42
2022-09-28T08:33:24.773Z,93598.84
2022-09-28T08:34:24.787Z,93601.56
2022-09-28T08:35:24.765Z,93602.00
2022-09-28T08:36:24.764Z,93606.58
2022-09-28T08:37:24.765Z,93612.21
2022-09-28T08:38:24.748Z,93609.29
2022-09-28T08:39:24.727Z,93614.41
2022-09-28T08:40:24.844Z,93617.48
2022-09-28T08:41:24.719Z,93616.80
2022-09-28T08:42:24.727Z,93623.92
2022-09-28T08:43:24.709Z,93630.38
2022-09-28T08:44:24.699Z,93628.03
2022-09-28T08:45:24.690Z,93633.81
2022-09-28T08:46:26.991Z,93629.73
2022-09-28T08:47:24.672Z,93632.81
2022-09-28T08:48:24.668Z,93635.02
2022-09-28T08:49:30.914Z,93631.73
2022-09-28T08:50:24.652Z,93635.12
2022-09-28T08:51:24.629Z,93631.80
2022-09-28T08:52:24.641Z,93632.31
2022-09-28T08:53:24.623Z,93634.86
2022-09-28T08:54:24.640Z,93632.84
2022-09-28T08:55:24.608Z,93631.15
2022-09-28T08:56:24.610Z,93630.57
2022-09-28T08:57:24.587Z,93632.44
2022-09-28T08:58:24.585Z,93632.17
2022-09-28T08:59:24.562Z,93630.12
2022-09-28T09:00:24.575Z,93634.03
2022-09-28T09:01:24.598Z,93634.31
2022-09-28T09:02:24.586Z,93641.12
2022-09-28T09:03:24.537Z,93635.94
2022-09-28T09:04:24.566Z,93642.73
2022-09-28T09:05:24.526Z,93642.55
2022-09-28T09:06:24.538Z,93645.45
2022-09-28T09:07:24.517Z,93648.09
2022-09-28T09:08:27.153Z,93648.02
2022-09-28T09:09:24.486Z,93645.48
2022-09-28T09:10:24.474Z,93647.41
2022-09-28T09:11:24.480Z,93651.82
2022-09-28T09:12:24.497Z,93658.58
2022-09-28T09:13:24.446Z,93652.81
2022-09-28T09:14:24.459Z,93653.75
2022-09-28T09:15:24.427Z,93659.80
2022-09-28T09:16:24.485Z,93652.73
2022-09-28T09:17:24.415Z,93658.58
2022-09-28T09:18:24.441Z,93656.20
2022-09-28T09:19:24.410Z,93656.50
2022-09-28T09:20:24.387Z,93654.23
2022-09-28T09:21:24.377Z,93647.60
2022-09-28T09:22:24.391Z,93653.04
2022-09-28T09:23:24.375Z,93652.36
2022-09-28T09:24:24.380Z,93652.05
2022-09-28T09:25:24.352Z,93650.89
2022-09-28T09:26:26.120Z,93652.93
2022-09-28T09:27:24.352Z,93654.52
2022-09-28T09:28:24.320Z,93653.16
2022-09-28T09:29:24.325Z,93653.33
2022-09-28T09:30:25.195Z,93662.27
2022-09-28T09:31:24.347Z,93660.12
2022-09-28T09:32:24.304Z,93661.69
2022-09-28T09:33:24.285Z,93656.86
2022-09-28T09:34:24.286Z,93656.81
2022-09-28T09:35:28.910Z,93655.38
2022-09-28T09:36:24.284Z,93653.11
2022-09-28T09:37:24.242Z,93654.30
2022-09-28T09:38:24.257Z,93655.92
2022-09-28T09:39:24.230Z,93660.58
2022-09-28T09:40:24.259Z,93659.89
2022-09-28T09:41:24.214Z,93657.78
2022-09-28T09:42:24.233Z,93669.03
2022-09-28T09:43:27.967Z,93667.26
2022-09-28T09:44:24.192Z,93670.31
2022-09-28T09:45:24.175Z,93670.83
2022-09-28T09:46:24.210Z,93672.52
2022-09-28T09:47:24.183Z,93676.02
2022-09-28T09:48:24.208Z,93677.21
2022-09-28T09:49:24.146Z,93673.30
2022-09-28T09:50:24.151Z,93675.03
2022-09-28T09:51:24.127Z,93675.30
2022-09-28T09:52:24.206Z,93673.77
2022-09-28T09:53:24.121Z,93671.80
2022-09-28T09:54:24.162Z,93675.98
2022-09-28T09:55:28.997Z,93677.78
2022-09-28T09:56:24.088Z,93679.72
2022-09-28T09:57:24.093Z,93680.70
2022-09-28T09:58:24.069Z,93682.39
2022-09-28T09:59:24.076Z,93681.38
2022-09-28T10:00:24.084Z,93677.47
2022-09-28T10:01:24.080Z,93675.94
2022-09-28T10:02:24.097Z,93676.82
2022-09-28T10:03:24.034Z,93675.70
2022-09-28T10:04:24.041Z,93674.20
2022-09-28T10:05:24.012Z,93675.12
2022-09-28T10:06:24.021Z,93675.39
2022-09-28T10:07:23.992Z,93673.38
2022-09-28T10:08:23.991Z,93671.92
2022-09-28T10:09:23.987Z,93677.22
2022-09-28T10:10:23.973Z,93680.23
2022-09-28T10:11:23.973Z,93675.58
2022-09-28T10:12:23.980Z,93674.29
2022-09-28T10:13:23.943Z,93685.77
2022-09-28T10:14:23.948Z,93682.78
2022-09-28T10:15:23.923Z,93688.33
2022-09-28T10:16:23.984Z,93682.64
2022-09-28T10:17:23.918Z,93686.38
2022-09-28T10:18:23.939Z,93693.04
2022-09-28T10:19:23.895Z,93688.19
2022-09-28T10:20:23.885Z,93693.42
2022-09-28T10:21:23.890Z,93689.95
2022-09-28T10:22:23.881Z,93691.62
2022-09-28T10:23:23.857Z,93688.66
2022-09-28T10:24:23.881Z,93689.45
2022-09-28T10:25:23.847Z,93691.58
2022-09-28T10:26:25.027Z,93694.12
2022-09-28T10:27:23.825Z,93693.89
2022-09-28T10:28:23.831Z,93691.27
2022-09-28T10:29:23.811Z,93695.59
2022-09-28T10:30:23.827Z,93692.22
2022-09-28T10:31:23.834Z,93695.86
2022-09-28T10:32:23.781Z,93687.47
2022-09-28T10:33:23.778Z,93692.32
2022-09-28T10:34:23.783Z,93694.56
2022-09-28T10:35:23.766Z,93690.89
2022-09-28T10:36:23.778Z,93687.22
2022-09-28T10:37:23.733Z,93693.67
2022-09-28T10:38:23.732Z,93697.67
2022-09-28T10:39:23.732Z,93696.15
2022-09-28T10:40:23.750Z,93696.15
2022-09-28T10:41:23.701Z,93691.39
2022-09-28T10:42:23.715Z,93692.65
2022-09-28T10:43:23.698Z,93690.71
2022-09-28T10:44:23.673Z,93697.88
2022-09-28T10:45:23.682Z,93695.50
2022-09-28T10:46:23.737Z,93699.17
2022-09-28T10:47:23.657Z,93691.11
2022-09-28T10:48:23.667Z,93687.54
2022-09-28T10:49:23.633Z,93687.88
2022-09-28T10:50:23.627Z,93687.03
2022-09-28T10:51:23.617Z,93692.16
2022-09-28T10:52:23.620Z,93694.39
2022-09-28T10:53:23.608Z,93686.23
2022-09-28T10:54:23.630Z,93686.34
2022-09-28T10:55:23.590Z,93687.62
2022-09-28T10:56:23.589Z,93684.77
2022-09-28T10:57:23.579Z,93691.05
2022-09-28T10:58:23.559Z,93682.14
2022-09-28T10:59:23.558Z,93681.59
2022-09-28T11:00:23.557Z,93684.00
2022-09-28T11:01:23.542Z,93682.16
2022-09-28T11:02:23.550Z,93684.71
2022-09-28T11:03:23.509Z,93687.36
2022-09-28T11:04:23.522Z,93689.33
2022-09-28T11:05:23.502Z,93686.47
2022-09-28T11:06:23.513Z,93686.23
2022-09-28T11:07:23.481Z,93687.52
2022-09-28T11:08:23.484Z,93688.05
2022-09-28T11:09:27.099Z,93691.31
2022-09-28T11:10:23.494Z,93696.07
2022-09-28T11:11:23.454Z,93690.63
2022-09-28T11:12:23.451Z,93688.62
2022-09-28T11:13:23.432Z,93691.44
2022-09-28T11:14:23.422Z,93690.69
2022-09-28T11:15:23.412Z,93686.34
2022-09-28T11:16:23.490Z,93690.89
2022-09-28T11:17:23.393Z,93683.14
2022-09-28T11:18:23.414Z,93679.53
2022-09-28T11:19:23.373Z,93673.65
2022-09-28T11:20:27.397Z,93679.02
2022-09-28T11:21:23.364Z,93678.20
2022-09-28T11:22:23.355Z,93678.36
2022-09-28T11:23:23.357Z,93682.61
2022-09-28T11:24:23.665Z,93683.20
2022-09-28T11:25:23.339Z,93687.34
2022-09-28T11:26:23.325Z,93692.64
2022-09-28T11:27:23.324Z,93689.75
2022-09-28T11:28:23.323Z,93692.72
2022-09-28T11:29:23.309Z,93698.09
2022-09-28T11:30:23.399Z,93700.51
2022-09-28T11:31:23.292Z,93694.97
2022-09-28T11:32:23.268Z,93697.34
2022-09-28T11:33:23.271Z,93696.98
2022-09-28T11:34:31.583Z,93688.65
2022-09-28T11:35:23.247Z,93686.08
2022-09-28T11:36:23.262Z,93683.69
2022-09-28T11:37:23.231Z,93686.75
2022-09-28T11:38:23.233Z,93693.36
2022-09-28T11:39:23.210Z,93690.44
2022-09-28T11:40:23.270Z,93691.45
2022-09-28T11:41:23.190Z,93687.18
2022-09-28T11:42:23.222Z,93688.70
2022-09-28T11:43:23.190Z,93691.27
2022-09-28T11:44:23.185Z,93690.15